Aérodrome :
LOGIN :

S'inscrire | Disclaimer

   EN    FR    IT 

 










Légende :    VFR   VFR Marginal   IFR   IFR Intensif   IFR Très Intensif
Visi : 
Plafond : 
>= 8 km
>= 3000ft
5 à 8 km
1000 à 3000 ft
1500m à 5 km
500 à 1000 ft
800 à 1500m
200 à 500 ft
< 800m
< 200 ft
Symboles :   Orages  Brouillard  Fortes neiges  Fortes précipitations  Vent > 20 kt
SIGMETs :   Divers  Orages  Givrage  Turbulence  Onde Orograph.  Cendres Volcan.






- Altitude de l'aérodrome : 49 ft
- Code IATA : GLZ


EHGR - Gilze-Rijen Airbase

DERNIER METAR :
  • 082225Z AUTO 18007KT 150V210 9999 NCD 02/01 Q1000 BLU

METARs EXPIRÉS :
  • 082159Z AUTO 19007KT 140V230 9999 NCD 02/01 Q1000 BLU
  • 082155Z AUTO 18006KT 140V210 9999 NCD 02/01 Q1000 BLU NOSIG
  • 082125Z AUTO 18007KT 130V200 9999 NCD 02/01 Q1000 BLU NOSIG
  • 082055Z AUTO 18007KT 150V220 9999 NCD 02/01 Q1000 BLU NOSIG
  • 082025Z AUTO 19007KT 150V230 9999 NCD 03/01 Q0999 BLU NOSIG
  • 081955Z AUTO 19008KT 150V240 9999 NCD 03/01 Q0999 BLU NOSIG

TAF TAF EHGR
Valide du 08 à 18h jusqu'au 09 à 06h UTC


081734Z 0818/0906 18006KT CAVOK
PROB30
TEMPO 0900/0906 3500 BR MIFG



MET'MAP, la Météo Aéronautique d'un coup d'oeil ! - Copyright ORBIFLY Décembre 2007 - Disclaimer

ORBIFLY MET'MAP TEAM :

Programmation & Développement : Alexandra Zaïnal
Sur une idée originale de : Baudouin d'Aumeries
Assistance à la programmation : Marc-Olivier Méhu
Soutien technique & logistique : Manuel Goepfert

Contact : metmap@orbifly.com




SOURCES & CREDITS :

   NOAA